sensor_id;sensor_type;location;lat;lon;timestamp;pressure;altitude;pressure_sealevel;temperature;humidity
44457;BME280;30159;49.316;8.558;2023-02-12T00:01:24;102529.31;;;7.97;99.32
44457;BME280;30159;49.316;8.558;2023-02-12T00:03:51;102473.53;;;7.79;98.95
44457;BME280;30159;49.316;8.558;2023-02-12T00:06:19;102469.63;;;7.62;98.77
44457;BME280;30159;49.316;8.558;2023-02-12T00:08:48;102505.16;;;7.77;99.53
44457;BME280;30159;49.316;8.558;2023-02-12T00:11:17;102515.44;;;8.00;99.10
44457;BME280;30159;49.316;8.558;2023-02-12T00:13:44;102521.03;;;8.06;98.32
44457;BME280;30159;49.316;8.558;2023-02-12T00:16:12;102526.00;;;8.02;97.90
44457;BME280;30159;49.316;8.558;2023-02-12T00:18:40;102513.81;;;7.66;99.91
44457;BME280;30159;49.316;8.558;2023-02-12T00:21:06;102513.84;;;7.46;100.00
44457;BME280;30159;49.316;8.558;2023-02-12T00:23:36;102508.47;;;7.39;100.00
44457;BME280;30159;49.316;8.558;2023-02-12T00:26:04;102502.03;;;7.34;100.00
44457;BME280;30159;49.316;8.558;2023-02-12T00:28:31;102503.50;;;7.36;100.00
44457;BME280;30159;49.316;8.558;2023-02-12T00:30:57;102512.41;;;7.37;100.00
44457;BME280;30159;49.316;8.558;2023-02-12T00:33:24;102511.16;;;7.46;100.00
44457;BME280;30159;49.316;8.558;2023-02-12T00:35:54;102474.59;;;7.25;100.00
44457;BME280;30159;49.316;8.558;2023-02-12T00:38:21;102522.50;;;7.62;100.00
44457;BME280;30159;49.316;8.558;2023-02-12T00:40:49;102522.50;;;7.81;100.00
44457;BME280;30159;49.316;8.558;2023-02-12T00:43:16;102520.84;;;7.94;100.00
44457;BME280;30159;49.316;8.558;2023-02-12T00:45:43;102522.47;;;8.01;100.00
44457;BME280;30159;49.316;8.558;2023-02-12T00:48:10;102525.78;;;8.03;100.00
44457;BME280;30159;49.316;8.558;2023-02-12T00:50:36;102506.59;;;7.93;99.70
44457;BME280;30159;49.316;8.558;2023-02-12T00:53:05;102525.97;;;8.09;98.77
44457;BME280;30159;49.316;8.558;2023-02-12T00:55:32;102528.69;;;8.02;99.31
44457;BME280;30159;49.316;8.558;2023-02-12T00:58:00;102515.88;;;7.91;99.84
44457;BME280;30159;49.316;8.558;2023-02-12T01:00:26;102533.66;;;7.98;99.93
44457;BME280;30159;49.316;8.558;2023-02-12T01:02:53;102522.50;;;7.88;99.80
44457;BME280;30159;49.316;8.558;2023-02-12T01:05:20;102542.13;;;7.95;99.60
44457;BME280;30159;49.316;8.558;2023-02-12T01:07:48;102535.72;;;7.90;99.72
44457;BME280;30159;49.316;8.558;2023-02-12T01:10:15;102502.47;;;7.71;99.92
44457;BME280;30159;49.316;8.558;2023-02-12T01:12:42;102544.41;;;7.92;100.00
44457;BME280;30159;49.316;8.558;2023-02-12T01:15:10;102551.00;;;7.89;100.00
44457;BME280;30159;49.316;8.558;2023-02-12T01:17:37;102526.84;;;7.76;100.00
44457;BME280;30159;49.316;8.558;2023-02-12T01:20:05;102545.63;;;7.82;100.00
44457;BME280;30159;49.316;8.558;2023-02-12T01:22:33;102505.75;;;7.53;100.00
44457;BME280;30159;49.316;8.558;2023-02-12T01:24:59;102537.81;;;7.74;100.00
44457;BME280;30159;49.316;8.558;2023-02-12T01:27:26;102531.19;;;7.77;100.00
44457;BME280;30159;49.316;8.558;2023-02-12T01:29:52;102526.25;;;7.74;100.00
44457;BME280;30159;49.316;8.558;2023-02-12T01:32:20;102538.63;;;7.81;100.00
44457;BME280;30159;49.316;8.558;2023-02-12T01:34:47;102534.06;;;7.75;100.00
44457;BME280;30159;49.316;8.558;2023-02-12T01:37:14;102547.31;;;7.77;100.00
44457;BME280;30159;49.316;8.558;2023-02-12T01:39:41;102536.97;;;7.80;100.00
44457;BME280;30159;49.316;8.558;2023-02-12T01:42:09;102540.69;;;7.86;100.00
44457;BME280;30159;49.316;8.558;2023-02-12T01:44:42;102530.16;;;7.78;100.00
44457;BME280;30159;49.316;8.558;2023-02-12T01:47:15;102530.56;;;7.68;100.00
44457;BME280;30159;49.316;8.558;2023-02-12T01:49:46;102491.31;;;7.41;100.00
44457;BME280;30159;49.316;8.558;2023-02-12T01:52:16;102528.31;;;7.65;100.00
44457;BME280;30159;49.316;8.558;2023-02-12T01:54:45;102500.00;;;7.49;100.00
44457;BME280;30159;49.316;8.558;2023-02-12T01:57:13;102512.19;;;7.52;100.00
44457;BME280;30159;49.316;8.558;2023-02-12T01:59:41;102516.94;;;7.50;100.00
44457;BME280;30159;49.316;8.558;2023-02-12T02:02:08;102515.91;;;7.51;100.00
44457;BME280;30159;49.316;8.558;2023-02-12T02:04:37;102526.22;;;7.41;100.00
44457;BME280;30159;49.316;8.558;2023-02-12T02:07:07;102501.84;;;7.29;100.00
44457;BME280;30159;49.316;8.558;2023-02-12T02:09:36;102516.09;;;7.36;100.00
44457;BME280;30159;49.316;8.558;2023-02-12T02:12:04;102520.44;;;7.37;100.00
44457;BME280;30159;49.316;8.558;2023-02-12T02:14:50;102508.66;;;7.31;100.00
44457;BME280;30159;49.316;8.558;2023-02-12T02:17:38;102511.53;;;7.36;100.00
44457;BME280;30159;49.316;8.558;2023-02-12T02:20:26;102514.66;;;7.40;100.00
44457;BME280;30159;49.316;8.558;2023-02-12T02:23:16;102512.41;;;7.44;100.00
44457;BME280;30159;49.316;8.558;2023-02-12T02:25:59;102511.97;;;7.47;100.00
44457;BME280;30159;49.316;8.558;2023-02-12T02:28:38;102507.41;;;7.41;100.00
44457;BME280;30159;49.316;8.558;2023-02-12T02:31:13;102521.47;;;7.43;100.00
44457;BME280;30159;49.316;8.558;2023-02-12T02:33:48;102514.03;;;7.31;100.00
44457;BME280;30159;49.316;8.558;2023-02-12T02:36:24;102507.22;;;7.29;100.00
44457;BME280;30159;49.316;8.558;2023-02-12T02:38:55;102513.00;;;7.32;100.00
44457;BME280;30159;49.316;8.558;2023-02-12T02:41:29;102514.03;;;7.38;100.00
44457;BME280;30159;49.316;8.558;2023-02-12T02:44:03;102520.84;;;7.41;100.00
44457;BME280;30159;49.316;8.558;2023-02-12T02:46:34;102516.53;;;7.46;100.00
44457;BME280;30159;49.316;8.558;2023-02-12T02:49:05;102508.88;;;7.43;100.00
44457;BME280;30159;49.316;8.558;2023-02-12T02:51:36;102514.66;;;7.47;100.00
44457;BME280;30159;49.316;8.558;2023-02-12T02:54:09;102495.22;;;7.31;100.00
44457;BME280;30159;49.316;8.558;2023-02-12T02:56:38;102511.16;;;7.39;100.00
44457;BME280;30159;49.316;8.558;2023-02-12T02:59:09;102509.28;;;7.33;100.00
44457;BME280;30159;49.316;8.558;2023-02-12T03:01:41;102500.59;;;7.31;100.00
44457;BME280;30159;49.316;8.558;2023-02-12T03:04:12;102508.84;;;7.36;100.00
44457;BME280;30159;49.316;8.558;2023-02-12T03:06:45;102514.84;;;7.38;100.00
44457;BME280;30159;49.316;8.558;2023-02-12T03:09:16;102516.09;;;7.36;100.00
44457;BME280;30159;49.316;8.558;2023-02-12T03:11:45;102509.47;;;7.32;100.00
44457;BME280;30159;49.316;8.558;2023-02-12T03:14:15;102504.09;;;7.32;100.00
44457;BME280;30159;49.316;8.558;2023-02-12T03:16:50;102502.66;;;7.36;100.00
44457;BME280;30159;49.316;8.558;2023-02-12T03:19:20;102505.78;;;7.39;100.00
44457;BME280;30159;49.316;8.558;2023-02-12T03:21:50;102501.25;;;7.47;100.00
44457;BME280;30159;49.316;8.558;2023-02-12T03:24:21;102499.38;;;7.47;100.00
44457;BME280;30159;49.316;8.558;2023-02-12T03:26:52;102495.84;;;7.33;100.00
44457;BME280;30159;49.316;8.558;2023-02-12T03:29:20;102513.41;;;7.43;100.00
44457;BME280;30159;49.316;8.558;2023-02-12T03:32:04;102498.53;;;7.33;100.00
44457;BME280;30159;49.316;8.558;2023-02-12T03:34:43;102519.59;;;7.43;100.00
44457;BME280;30159;49.316;8.558;2023-02-12T03:37:13;102504.75;;;7.27;100.00
44457;BME280;30159;49.316;8.558;2023-02-12T03:39:49;102508.03;;;7.36;100.00
44457;BME280;30159;49.316;8.558;2023-02-12T03:42:23;102519.59;;;7.36;100.00
44457;BME280;30159;49.316;8.558;2023-02-12T03:44:55;102520.00;;;7.33;100.00
44457;BME280;30159;49.316;8.558;2023-02-12T03:47:30;102505.59;;;7.34;100.00
44457;BME280;30159;49.316;8.558;2023-02-12T03:50:05;102512.56;;;7.29;100.00
44457;BME280;30159;49.316;8.558;2023-02-12T03:52:34;102503.91;;;7.33;100.00
44457;BME280;30159;49.316;8.558;2023-02-12T03:55:02;102520.84;;;7.41;100.00
44457;BME280;30159;49.316;8.558;2023-02-12T03:57:32;102516.72;;;7.45;100.00
44457;BME280;30159;49.316;8.558;2023-02-12T04:00:02;102518.78;;;7.43;100.00
44457;BME280;30159;49.316;8.558;2023-02-12T04:02:30;102517.34;;;7.47;100.00
44457;BME280;30159;49.316;8.558;2023-02-12T04:04:57;102522.53;;;7.48;100.00
44457;BME280;30159;49.316;8.558;2023-02-12T04:07:23;102507.22;;;7.49;100.00
44457;BME280;30159;49.316;8.558;2023-02-12T04:09:50;102519.81;;;7.55;100.00
44457;BME280;30159;49.316;8.558;2023-02-12T04:12:28;102516.94;;;7.56;100.00
44457;BME280;30159;49.316;8.558;2023-02-12T04:15:08;102522.94;;;7.65;100.00
44457;BME280;30159;49.316;8.558;2023-02-12T04:17:44;102514.25;;;7.63;100.00
44457;BME280;30159;49.316;8.558;2023-02-12T04:20:21;102522.72;;;7.67;100.00
44457;BME280;30159;49.316;8.558;2023-02-12T04:22:54;102523.31;;;7.35;100.00
44457;BME280;30159;49.316;8.558;2023-02-12T04:25:40;102475.56;;;6.84;100.00
44457;BME280;30159;49.316;8.558;2023-02-12T04:28:12;102523.69;;;7.06;100.00
44457;BME280;30159;49.316;8.558;2023-02-12T04:30:44;102533.19;;;7.02;100.00
44457;BME280;30159;49.316;8.558;2023-02-12T04:33:17;102536.09;;;7.07;100.00
44457;BME280;30159;49.316;8.558;2023-02-12T04:35:48;102526.59;;;7.24;100.00
44457;BME280;30159;49.316;8.558;2023-02-12T04:38:18;102534.06;;;7.35;100.00
44457;BME280;30159;49.316;8.558;2023-02-12T04:40:47;102532.44;;;7.34;100.00
44457;BME280;30159;49.316;8.558;2023-02-12T04:43:14;102534.47;;;7.32;100.00
44457;BME280;30159;49.316;8.558;2023-02-12T04:45:42;102530.13;;;7.31;100.00
44457;BME280;30159;49.316;8.558;2023-02-12T04:48:08;102533.66;;;7.38;100.00
44457;BME280;30159;49.316;8.558;2023-02-12T04:50:40;102532.81;;;7.38;100.00
44457;BME280;30159;49.316;8.558;2023-02-12T04:53:07;102534.50;;;7.39;100.00
44457;BME280;30159;49.316;8.558;2023-02-12T04:55:34;102498.53;;;7.20;100.00
44457;BME280;30159;49.316;8.558;2023-02-12T04:58:01;102528.91;;;7.47;100.00
44457;BME280;30159;49.316;8.558;2023-02-12T05:00:27;102500.59;;;7.25;100.00
44457;BME280;30159;49.316;8.558;2023-02-12T05:02:54;102531.19;;;7.44;100.00
44457;BME280;30159;49.316;8.558;2023-02-12T05:05:21;102540.25;;;7.43;100.00
44457;BME280;30159;49.316;8.558;2023-02-12T05:07:49;102524.13;;;7.29;100.00
44457;BME280;30159;49.316;8.558;2023-02-12T05:10:16;102533.66;;;7.38;100.00
44457;BME280;30159;49.316;8.558;2023-02-12T05:12:42;102532.81;;;7.38;100.00
44457;BME280;30159;49.316;8.558;2023-02-12T05:15:09;102532.00;;;7.37;100.00
44457;BME280;30159;49.316;8.558;2023-02-12T05:17:36;102526.63;;;7.37;100.00
44457;BME280;30159;49.316;8.558;2023-02-12T05:20:03;102529.53;;;7.43;100.00
44457;BME280;30159;49.316;8.558;2023-02-12T05:22:29;102513.19;;;7.31;100.00
44457;BME280;30159;49.316;8.558;2023-02-12T05:24:57;102524.16;;;7.36;100.00
44457;BME280;30159;49.316;8.558;2023-02-12T05:27:24;102527.25;;;7.39;100.00
44457;BME280;30159;49.316;8.558;2023-02-12T05:29:50;102517.97;;;7.35;100.00
44457;BME280;30159;49.316;8.558;2023-02-12T05:32:17;102513.41;;;7.29;100.00
44457;BME280;30159;49.316;8.558;2023-02-12T05:34:43;102522.69;;;7.33;100.00
44457;BME280;30159;49.316;8.558;2023-02-12T05:37:10;102526.22;;;7.34;100.00
44457;BME280;30159;49.316;8.558;2023-02-12T05:39:37;102524.97;;;7.30;100.00
44457;BME280;30159;49.316;8.558;2023-02-12T05:42:04;102519.16;;;7.00;100.00
44457;BME280;30159;49.316;8.558;2023-02-12T05:44:31;102522.84;;;6.99;100.00
44457;BME280;30159;49.316;8.558;2023-02-12T05:46:57;102525.97;;;7.09;100.00
44457;BME280;30159;49.316;8.558;2023-02-12T05:49:24;102519.16;;;7.13;100.00
44457;BME280;30159;49.316;8.558;2023-02-12T05:51:50;102529.09;;;7.26;100.00
44457;BME280;30159;49.316;8.558;2023-02-12T05:54:17;102533.63;;;7.32;100.00
44457;BME280;30159;49.316;8.558;2023-02-12T05:56:45;102534.28;;;7.41;100.00
44457;BME280;30159;49.316;8.558;2023-02-12T05:59:16;102544.38;;;7.38;100.00
44457;BME280;30159;49.316;8.558;2023-02-12T06:01:44;102533.03;;;7.36;100.00
44457;BME280;30159;49.316;8.558;2023-02-12T06:04:14;102530.53;;;7.28;100.00
44457;BME280;30159;49.316;8.558;2023-02-12T06:06:41;102535.09;;;7.34;100.00
44457;BME280;30159;49.316;8.558;2023-02-12T06:09:08;102543.97;;;7.35;100.00
44457;BME280;30159;49.316;8.558;2023-02-12T06:11:35;102520.81;;;7.14;100.00
44457;BME280;30159;49.316;8.558;2023-02-12T06:14:02;102538.59;;;7.22;100.00
44457;BME280;30159;49.316;8.558;2023-02-12T06:16:30;102540.25;;;7.23;100.00
44457;BME280;30159;49.316;8.558;2023-02-12T06:18:57;102543.97;;;7.28;100.00
44457;BME280;30159;49.316;8.558;2023-02-12T06:21:25;102552.41;;;7.12;100.00
44457;BME280;30159;49.316;8.558;2023-02-12T06:23:52;102543.13;;;7.21;100.00
44457;BME280;30159;49.316;8.558;2023-02-12T06:26:19;102546.63;;;7.22;100.00
44457;BME280;30159;49.316;8.558;2023-02-12T06:28:46;102552.19;;;7.20;100.00
44457;BME280;30159;49.316;8.558;2023-02-12T06:31:18;102553.19;;;7.06;100.00
44457;BME280;30159;49.316;8.558;2023-02-12T06:33:46;102549.94;;;7.17;100.00
44457;BME280;30159;49.316;8.558;2023-02-12T06:36:13;102556.47;;;6.94;100.00
44457;BME280;30159;49.316;8.558;2023-02-12T06:38:40;102551.09;;;6.94;100.00
44457;BME280;30159;49.316;8.558;2023-02-12T06:41:06;102550.44;;;6.79;100.00
44457;BME280;30159;49.316;8.558;2023-02-12T06:43:33;102549.03;;;6.83;100.00
44457;BME280;30159;49.316;8.558;2023-02-12T06:46:00;102545.91;;;6.80;100.00
44457;BME280;30159;49.316;8.558;2023-02-12T06:48:27;102511.53;;;6.48;100.00
44457;BME280;30159;49.316;8.558;2023-02-12T06:50:55;102558.69;;;6.78;100.00
44457;BME280;30159;49.316;8.558;2023-02-12T06:53:22;102554.31;;;6.70;100.00
44457;BME280;30159;49.316;8.558;2023-02-12T06:55:49;102510.53;;;6.56;100.00
44457;BME280;30159;49.316;8.558;2023-02-12T06:58:16;102562.81;;;6.80;100.00
44457;BME280;30159;49.316;8.558;2023-02-12T07:00:42;102563.19;;;6.70;100.00
44457;BME280;30159;49.316;8.558;2023-02-12T07:03:09;102569.41;;;6.78;100.00
44457;BME280;30159;49.316;8.558;2023-02-12T07:05:38;102570.31;;;6.98;100.00
44457;BME280;30159;49.316;8.558;2023-02-12T07:08:06;102569.94;;;7.08;100.00
44457;BME280;30159;49.316;8.558;2023-02-12T07:10:32;102578.03;;;7.21;100.00
44457;BME280;30159;49.316;8.558;2023-02-12T07:12:59;102574.75;;;7.39;100.00
44457;BME280;30159;49.316;8.558;2023-02-12T07:15:25;102571.69;;;7.49;100.00
44457;BME280;30159;49.316;8.558;2023-02-12T07:17:52;102573.75;;;7.60;100.00
44457;BME280;30159;49.316;8.558;2023-02-12T07:20:18;102555.34;;;7.57;100.00
44457;BME280;30159;49.316;8.558;2023-02-12T07:22:45;102570.66;;;7.70;100.00
44457;BME280;30159;49.316;8.558;2023-02-12T07:25:13;102572.94;;;7.79;100.00
44457;BME280;30159;49.316;8.558;2023-02-12T07:27:39;102579.13;;;7.87;100.00
44457;BME280;30159;49.316;8.558;2023-02-12T07:30:07;102574.56;;;7.94;100.00
44457;BME280;30159;49.316;8.558;2023-02-12T07:32:34;102585.75;;;7.91;100.00
44457;BME280;30159;49.316;8.558;2023-02-12T07:35:00;102579.31;;;7.92;100.00
44457;BME280;30159;49.316;8.558;2023-02-12T07:37:27;102589.88;;;7.87;100.00
44457;BME280;30159;49.316;8.558;2023-02-12T07:39:53;102571.25;;;7.78;100.00
44457;BME280;30159;49.316;8.558;2023-02-12T07:42:21;102591.72;;;7.99;100.00
44457;BME280;30159;49.316;8.558;2023-02-12T07:44:48;102585.53;;;7.99;100.00
44457;BME280;30159;49.316;8.558;2023-02-12T07:47:14;102587.38;;;8.05;100.00
44457;BME280;30159;49.316;8.558;2023-02-12T07:49:44;102518.81;;;7.69;100.00
44457;BME280;30159;49.316;8.558;2023-02-12T07:52:10;102596.06;;;8.20;100.00
44457;BME280;30159;49.316;8.558;2023-02-12T07:54:37;102592.34;;;8.15;100.00
44457;BME280;30159;49.316;8.558;2023-02-12T07:57:03;102592.31;;;8.21;100.00
44457;BME280;30159;49.316;8.558;2023-02-12T07:59:31;102594.59;;;8.24;100.00
44457;BME280;30159;49.316;8.558;2023-02-12T08:01:58;102596.25;;;8.26;100.00
44457;BME280;30159;49.316;8.558;2023-02-12T08:04:25;102590.25;;;8.37;100.00
44457;BME280;30159;49.316;8.558;2023-02-12T08:06:54;102589.84;;;8.47;100.00
44457;BME280;30159;49.316;8.558;2023-02-12T08:09:23;102592.72;;;8.45;100.00
44457;BME280;30159;49.316;8.558;2023-02-12T08:11:50;102581.56;;;8.35;100.00
44457;BME280;30159;49.316;8.558;2023-02-12T08:14:18;102584.25;;;8.35;100.00
44457;BME280;30159;49.316;8.558;2023-02-12T08:16:47;102599.13;;;8.51;100.00
44457;BME280;30159;49.316;8.558;2023-02-12T08:19:14;102578.66;;;8.43;100.00
44457;BME280;30159;49.316;8.558;2023-02-12T08:21:41;102598.28;;;8.50;100.00
44457;BME280;30159;49.316;8.558;2023-02-12T08:24:09;102603.84;;;8.55;100.00
44457;BME280;30159;49.316;8.558;2023-02-12T08:26:37;102607.16;;;8.57;100.00
44457;BME280;30159;49.316;8.558;2023-02-12T08:29:05;102601.41;;;8.47;100.00
44457;BME280;30159;49.316;8.558;2023-02-12T08:31:34;102605.34;;;8.51;100.00
44457;BME280;30159;49.316;8.558;2023-02-12T08:34:02;102608.88;;;8.45;100.00
44457;BME280;30159;49.316;8.558;2023-02-12T08:36:34;102608.44;;;8.35;100.00
44457;BME280;30159;49.316;8.558;2023-02-12T08:39:01;102608.25;;;8.23;100.00
44457;BME280;30159;49.316;8.558;2023-02-12T08:41:29;102615.66;;;8.34;100.00
44457;BME280;30159;49.316;8.558;2023-02-12T08:43:59;102603.72;;;8.23;100.00
44457;BME280;30159;49.316;8.558;2023-02-12T08:46:27;102601.84;;;8.44;100.00
44457;BME280;30159;49.316;8.558;2023-02-12T08:48:56;102612.56;;;8.57;100.00
44457;BME280;30159;49.316;8.558;2023-02-12T08:51:25;102610.44;;;8.79;100.00
44457;BME280;30159;49.316;8.558;2023-02-12T08:53:55;102607.50;;;8.81;100.00
44457;BME280;30159;49.316;8.558;2023-02-12T08:56:23;102606.28;;;8.83;99.61
44457;BME280;30159;49.316;8.558;2023-02-12T08:58:50;102567.50;;;8.33;100.00
44457;BME280;30159;49.316;8.558;2023-02-12T09:01:20;102611.75;;;8.50;100.00
44457;BME280;30159;49.316;8.558;2023-02-12T09:03:47;102586.53;;;8.24;100.00
44457;BME280;30159;49.316;8.558;2023-02-12T09:06:16;102627.66;;;8.38;100.00
44457;BME280;30159;49.316;8.558;2023-02-12T09:08:44;102620.84;;;8.22;100.00
44457;BME280;30159;49.316;8.558;2023-02-12T09:11:13;102614.03;;;8.13;100.00
44457;BME280;30159;49.316;8.558;2023-02-12T09:13:41;102600.41;;;8.08;100.00
44457;BME280;30159;49.316;8.558;2023-02-12T09:16:09;102625.41;;;8.22;100.00
44457;BME280;30159;49.316;8.558;2023-02-12T09:18:35;102628.09;;;8.49;100.00
44457;BME280;30159;49.316;8.558;2023-02-12T09:21:04;102620.44;;;8.52;100.00
44457;BME280;30159;49.316;8.558;2023-02-12T09:23:31;102614.22;;;8.58;100.00
44457;BME280;30159;49.316;8.558;2023-02-12T09:25:59;102626.59;;;8.73;100.00
44457;BME280;30159;49.316;8.558;2023-02-12T09:28:26;102617.69;;;8.72;100.00
44457;BME280;30159;49.316;8.558;2023-02-12T09:30:52;102615.00;;;8.79;100.00
44457;BME280;30159;49.316;8.558;2023-02-12T09:33:18;102629.44;;;8.91;100.00
44457;BME280;30159;49.316;8.558;2023-02-12T09:35:46;102628.91;;;9.14;100.00
44457;BME280;30159;49.316;8.558;2023-02-12T09:38:13;102625.63;;;9.05;98.97
44457;BME280;30159;49.316;8.558;2023-02-12T09:40:48;102623.16;;;9.04;99.59
44457;BME280;30159;49.316;8.558;2023-02-12T09:43:26;102629.75;;;9.15;99.09
44457;BME280;30159;49.316;8.558;2023-02-12T09:46:00;102629.13;;;9.13;99.75
44457;BME280;30159;49.316;8.558;2023-02-12T09:48:46;102628.13;;;9.07;100.00
44457;BME280;30159;49.316;8.558;2023-02-12T09:51:13;102626.19;;;9.21;99.62
44457;BME280;30159;49.316;8.558;2023-02-12T09:53:45;102629.38;;;9.04;100.00
44457;BME280;30159;49.316;8.558;2023-02-12T09:56:15;102621.09;;;8.99;100.00
44457;BME280;30159;49.316;8.558;2023-02-12T09:58:48;102617.41;;;8.94;100.00
44457;BME280;30159;49.316;8.558;2023-02-12T10:01:19;102624.28;;;8.83;100.00
44457;BME280;30159;49.316;8.558;2023-02-12T10:03:47;102630.66;;;8.95;100.00
44457;BME280;30159;49.316;8.558;2023-02-12T10:06:16;102630.66;;;8.95;100.00
44457;BME280;30159;49.316;8.558;2023-02-12T10:08:58;102629.72;;;8.63;100.00
44457;BME280;30159;49.316;8.558;2023-02-12T10:11:45;102617.94;;;8.57;100.00
44457;BME280;30159;49.316;8.558;2023-02-12T10:14:37;102630.34;;;8.58;100.00
44457;BME280;30159;49.316;8.558;2023-02-12T10:17:14;102624.50;;;8.81;100.00
44457;BME280;30159;49.316;8.558;2023-02-12T10:20:02;102577.81;;;8.62;100.00
44457;BME280;30159;49.316;8.558;2023-02-12T10:22:35;102626.88;;;9.10;100.00
44457;BME280;30159;49.316;8.558;2023-02-12T10:25:15;102624.22;;;8.96;100.00
44457;BME280;30159;49.316;8.558;2023-02-12T10:27:48;102584.53;;;8.85;100.00
44457;BME280;30159;49.316;8.558;2023-02-12T10:30:19;102607.38;;;9.14;100.00
44457;BME280;30159;49.316;8.558;2023-02-12T10:32:49;102623.53;;;9.14;100.00
44457;BME280;30159;49.316;8.558;2023-02-12T10:35:18;102614.25;;;9.03;100.00
44457;BME280;30159;49.316;8.558;2023-02-12T10:37:49;102582.69;;;8.79;100.00
44457;BME280;30159;49.316;8.558;2023-02-12T10:40:22;102608.66;;;9.05;100.00
44457;BME280;30159;49.316;8.558;2023-02-12T10:42:51;102604.50;;;9.09;100.00
44457;BME280;30159;49.316;8.558;2023-02-12T10:45:20;102598.66;;;9.19;100.00
44457;BME280;30159;49.316;8.558;2023-02-12T10:47:50;102599.56;;;9.44;100.00
44457;BME280;30159;49.316;8.558;2023-02-12T10:50:31;102598.25;;;9.54;100.00
44457;BME280;30159;49.316;8.558;2023-02-12T10:53:01;102598.63;;;9.57;100.00
44457;BME280;30159;49.316;8.558;2023-02-12T10:55:30;102597.88;;;9.75;99.34
44457;BME280;30159;49.316;8.558;2023-02-12T10:57:58;102562.19;;;9.80;97.97
44457;BME280;30159;49.316;8.558;2023-02-12T11:00:29;102593.22;;;10.32;95.97
44457;BME280;30159;49.316;8.558;2023-02-12T11:03:02;102587.78;;;10.76;95.58
44457;BME280;30159;49.316;8.558;2023-02-12T11:05:31;102581.94;;;11.09;92.28
44457;BME280;30159;49.316;8.558;2023-02-12T11:07:58;102580.56;;;11.18;89.26
44457;BME280;30159;49.316;8.558;2023-02-12T11:10:27;102582.22;;;10.71;89.96
44457;BME280;30159;49.316;8.558;2023-02-12T11:12:57;102569.44;;;10.23;92.88
44457;BME280;30159;49.316;8.558;2023-02-12T11:15:25;102576.47;;;10.30;92.95
44457;BME280;30159;49.316;8.558;2023-02-12T11:17:58;102579.25;;;10.61;92.71
44457;BME280;30159;49.316;8.558;2023-02-12T11:20:26;102577.78;;;10.76;90.76
44457;BME280;30159;49.316;8.558;2023-02-12T11:22:56;102572.78;;;10.62;89.13
44457;BME280;30159;49.316;8.558;2023-02-12T11:25:25;102573.78;;;10.49;90.96
44457;BME280;30159;49.316;8.558;2023-02-12T11:30:52;102571.13;;;10.79;90.28
44457;BME280;30159;49.316;8.558;2023-02-12T11:33:26;102547.38;;;10.51;89.46
44457;BME280;30159;49.316;8.558;2023-02-12T11:35:55;102563.34;;;10.71;90.11
44457;BME280;30159;49.316;8.558;2023-02-12T11:38:25;102555.50;;;11.00;89.67
44457;BME280;30159;49.316;8.558;2023-02-12T11:40:56;102558.78;;;11.02;88.96
44457;BME280;30159;49.316;8.558;2023-02-12T11:43:23;102562.22;;;11.09;87.98
44457;BME280;30159;49.316;8.558;2023-02-12T11:45:52;102551.91;;;11.17;87.85
44457;BME280;30159;49.316;8.558;2023-02-12T11:48:24;102504.00;;;11.13;86.91
44457;BME280;30159;49.316;8.558;2023-02-12T11:50:53;102520.88;;;11.08;86.59
44457;BME280;30159;49.316;8.558;2023-02-12T11:53:23;102435.06;;;10.68;86.87
44457;BME280;30159;49.316;8.558;2023-02-12T11:55:53;102544.13;;;11.51;86.00
44457;BME280;30159;49.316;8.558;2023-02-12T11:58:23;102521.88;;;11.26;86.12
44457;BME280;30159;49.316;8.558;2023-02-12T12:00:53;102546.47;;;11.36;86.35
44457;BME280;30159;49.316;8.558;2023-02-12T12:03:27;102515.53;;;10.90;86.31
44457;BME280;30159;49.316;8.558;2023-02-12T12:05:59;102543.50;;;10.95;88.53
44457;BME280;30159;49.316;8.558;2023-02-12T12:08:36;102541.91;;;11.06;87.05
44457;BME280;30159;49.316;8.558;2023-02-12T12:11:10;102515.88;;;11.12;87.73
44457;BME280;30159;49.316;8.558;2023-02-12T12:13:43;102472.34;;;10.90;85.67
44457;BME280;30159;49.316;8.558;2023-02-12T12:16:17;102533.09;;;10.81;87.38
44457;BME280;30159;49.316;8.558;2023-02-12T12:19:10;102456.41;;;10.21;87.71
44457;BME280;30159;49.316;8.558;2023-02-12T12:21:59;102517.56;;;10.46;88.57
44457;BME280;30159;49.316;8.558;2023-02-12T12:24:34;102521.34;;;10.75;88.42
44457;BME280;30159;49.316;8.558;2023-02-12T12:27:11;102514.03;;;10.94;87.23
44457;BME280;30159;49.316;8.558;2023-02-12T12:30:01;102515.97;;;11.05;87.21
44457;BME280;30159;49.316;8.558;2023-02-12T12:32:33;102523.56;;;11.50;84.98
44457;BME280;30159;49.316;8.558;2023-02-12T12:35:07;102517.09;;;11.51;85.16
44457;BME280;30159;49.316;8.558;2023-02-12T12:37:36;102504.97;;;11.30;84.48
44457;BME280;30159;49.316;8.558;2023-02-12T12:40:17;102514.88;;;11.48;85.05
44457;BME280;30159;49.316;8.558;2023-02-12T12:43:13;102485.56;;;11.10;86.01
44457;BME280;30159;49.316;8.558;2023-02-12T12:46:08;102503.09;;;11.31;85.49
44457;BME280;30159;49.316;8.558;2023-02-12T12:52:12;102502.84;;;11.21;85.63
44457;BME280;30159;49.316;8.558;2023-02-12T12:54:56;102496.34;;;10.98;86.15
44457;BME280;30159;49.316;8.558;2023-02-12T12:57:36;102494.69;;;11.09;86.97
44457;BME280;30159;49.316;8.558;2023-02-12T13:03:10;102487.25;;;11.34;86.39
44457;BME280;30159;49.316;8.558;2023-02-12T13:05:57;102481.69;;;11.17;86.38
44457;BME280;30159;49.316;8.558;2023-02-12T13:08:39;102476.75;;;11.03;87.75
44457;BME280;30159;49.316;8.558;2023-02-12T13:11:16;102472.28;;;11.08;87.05
44457;BME280;30159;49.316;8.558;2023-02-12T13:13:50;102466.50;;;11.05;87.39
44457;BME280;30159;49.316;8.558;2023-02-12T13:16:22;102451.38;;;11.15;87.92